sensor_id;sensor_type;location;lat;lon;timestamp;P1;durP1;ratioP1;P2;durP2;ratioP2
11481;SDS011;5797;51.662;6.748;2023-08-20T00:00:32;5.63;;;4.00;;
11481;SDS011;5797;51.662;6.748;2023-08-20T00:03:03;6.07;;;3.90;;
11481;SDS011;5797;51.662;6.748;2023-08-20T00:05:33;7.73;;;4.37;;
11481;SDS011;5797;51.662;6.748;2023-08-20T00:08:02;7.30;;;4.23;;
11481;SDS011;5797;51.662;6.748;2023-08-20T00:10:31;8.87;;;4.33;;
11481;SDS011;5797;51.662;6.748;2023-08-20T00:13:00;6.13;;;4.23;;
11481;SDS011;5797;51.662;6.748;2023-08-20T00:15:29;5.90;;;3.97;;
11481;SDS011;5797;51.662;6.748;2023-08-20T00:17:59;5.87;;;3.90;;
11481;SDS011;5797;51.662;6.748;2023-08-20T00:20:28;6.37;;;3.77;;
11481;SDS011;5797;51.662;6.748;2023-08-20T00:22:58;5.27;;;4.17;;
11481;SDS011;5797;51.662;6.748;2023-08-20T00:25:27;6.37;;;3.60;;
11481;SDS011;5797;51.662;6.748;2023-08-20T00:27:56;9.67;;;4.40;;
11481;SDS011;5797;51.662;6.748;2023-08-20T00:30:24;5.97;;;3.70;;
11481;SDS011;5797;51.662;6.748;2023-08-20T00:32:53;5.37;;;3.47;;
11481;SDS011;5797;51.662;6.748;2023-08-20T00:35:24;8.50;;;3.87;;
11481;SDS011;5797;51.662;6.748;2023-08-20T00:37:53;5.03;;;3.80;;
11481;SDS011;5797;51.662;6.748;2023-08-20T00:40:21;8.20;;;3.63;;
11481;SDS011;5797;51.662;6.748;2023-08-20T00:42:50;5.90;;;3.87;;
11481;SDS011;5797;51.662;6.748;2023-08-20T00:45:19;5.23;;;3.83;;
11481;SDS011;5797;51.662;6.748;2023-08-20T00:47:49;7.63;;;4.27;;
11481;SDS011;5797;51.662;6.748;2023-08-20T00:50:18;4.57;;;3.70;;
11481;SDS011;5797;51.662;6.748;2023-08-20T00:52:48;4.83;;;4.00;;
11481;SDS011;5797;51.662;6.748;2023-08-20T00:55:17;8.30;;;4.00;;
11481;SDS011;5797;51.662;6.748;2023-08-20T00:57:46;4.53;;;3.80;;
11481;SDS011;5797;51.662;6.748;2023-08-20T01:00:15;4.20;;;3.40;;
11481;SDS011;5797;51.662;6.748;2023-08-20T01:02:44;4.47;;;3.40;;
11481;SDS011;5797;51.662;6.748;2023-08-20T01:05:14;7.10;;;3.67;;
11481;SDS011;5797;51.662;6.748;2023-08-20T01:07:47;5.73;;;4.13;;
11481;SDS011;5797;51.662;6.748;2023-08-20T01:10:24;5.73;;;3.83;;
11481;SDS011;5797;51.662;6.748;2023-08-20T01:12:55;5.57;;;3.83;;
11481;SDS011;5797;51.662;6.748;2023-08-20T01:15:24;8.57;;;4.00;;
11481;SDS011;5797;51.662;6.748;2023-08-20T01:17:52;6.47;;;3.93;;
11481;SDS011;5797;51.662;6.748;2023-08-20T01:20:21;8.87;;;4.27;;
11481;SDS011;5797;51.662;6.748;2023-08-20T01:23:08;6.43;;;4.20;;
11481;SDS011;5797;51.662;6.748;2023-08-20T01:25:50;3.97;;;3.47;;
11481;SDS011;5797;51.662;6.748;2023-08-20T01:28:30;6.10;;;4.00;;
11481;SDS011;5797;51.662;6.748;2023-08-20T01:30:59;6.87;;;3.93;;
11481;SDS011;5797;51.662;6.748;2023-08-20T01:33:29;6.40;;;3.57;;
11481;SDS011;5797;51.662;6.748;2023-08-20T01:35:58;6.80;;;4.20;;
11481;SDS011;5797;51.662;6.748;2023-08-20T01:38:27;5.07;;;4.10;;
11481;SDS011;5797;51.662;6.748;2023-08-20T01:40:55;4.97;;;4.00;;
11481;SDS011;5797;51.662;6.748;2023-08-20T01:43:24;8.27;;;4.37;;
11481;SDS011;5797;51.662;6.748;2023-08-20T01:45:55;10.27;;;4.50;;
11481;SDS011;5797;51.662;6.748;2023-08-20T01:48:24;9.80;;;4.67;;
11481;SDS011;5797;51.662;6.748;2023-08-20T01:50:53;10.03;;;4.97;;
11481;SDS011;5797;51.662;6.748;2023-08-20T01:53:21;6.13;;;3.83;;
11481;SDS011;5797;51.662;6.748;2023-08-20T01:55:50;6.63;;;4.80;;
11481;SDS011;5797;51.662;6.748;2023-08-20T01:58:18;6.53;;;4.50;;
11481;SDS011;5797;51.662;6.748;2023-08-20T02:00:47;6.70;;;4.30;;
11481;SDS011;5797;51.662;6.748;2023-08-20T02:03:17;5.37;;;4.07;;
11481;SDS011;5797;51.662;6.748;2023-08-20T02:05:46;5.13;;;3.97;;
11481;SDS011;5797;51.662;6.748;2023-08-20T02:08:14;6.20;;;4.20;;
11481;SDS011;5797;51.662;6.748;2023-08-20T02:10:43;7.87;;;4.00;;
11481;SDS011;5797;51.662;6.748;2023-08-20T02:13:12;8.17;;;4.47;;
11481;SDS011;5797;51.662;6.748;2023-08-20T02:15:40;10.70;;;5.00;;
11481;SDS011;5797;51.662;6.748;2023-08-20T02:18:09;5.97;;;4.17;;
11481;SDS011;5797;51.662;6.748;2023-08-20T02:20:41;8.83;;;4.83;;
11481;SDS011;5797;51.662;6.748;2023-08-20T02:23:11;8.47;;;5.27;;
11481;SDS011;5797;51.662;6.748;2023-08-20T02:25:40;10.07;;;4.43;;
11481;SDS011;5797;51.662;6.748;2023-08-20T02:28:09;6.40;;;4.13;;
11481;SDS011;5797;51.662;6.748;2023-08-20T02:30:39;7.93;;;4.60;;
11481;SDS011;5797;51.662;6.748;2023-08-20T02:33:09;6.80;;;4.30;;
11481;SDS011;5797;51.662;6.748;2023-08-20T02:35:39;6.03;;;4.57;;
11481;SDS011;5797;51.662;6.748;2023-08-20T02:38:08;8.03;;;4.70;;
11481;SDS011;5797;51.662;6.748;2023-08-20T02:40:40;5.57;;;4.30;;
11481;SDS011;5797;51.662;6.748;2023-08-20T02:43:09;6.33;;;4.53;;
11481;SDS011;5797;51.662;6.748;2023-08-20T02:45:41;7.77;;;5.20;;
11481;SDS011;5797;51.662;6.748;2023-08-20T02:48:10;7.40;;;4.80;;
11481;SDS011;5797;51.662;6.748;2023-08-20T02:50:40;6.53;;;4.93;;
11481;SDS011;5797;51.662;6.748;2023-08-20T02:53:09;8.03;;;5.40;;
11481;SDS011;5797;51.662;6.748;2023-08-20T02:55:37;6.70;;;4.93;;
11481;SDS011;5797;51.662;6.748;2023-08-20T02:58:06;5.70;;;4.67;;
11481;SDS011;5797;51.662;6.748;2023-08-20T03:00:36;5.77;;;4.67;;
11481;SDS011;5797;51.662;6.748;2023-08-20T03:03:05;7.23;;;4.60;;
11481;SDS011;5797;51.662;6.748;2023-08-20T03:05:37;6.20;;;4.30;;
11481;SDS011;5797;51.662;6.748;2023-08-20T03:08:07;5.87;;;4.63;;
11481;SDS011;5797;51.662;6.748;2023-08-20T03:10:37;8.93;;;5.50;;
11481;SDS011;5797;51.662;6.748;2023-08-20T03:13:05;12.27;;;4.90;;
11481;SDS011;5797;51.662;6.748;2023-08-20T03:15:34;8.20;;;4.73;;
11481;SDS011;5797;51.662;6.748;2023-08-20T03:18:03;6.90;;;4.70;;
11481;SDS011;5797;51.662;6.748;2023-08-20T03:20:32;6.80;;;4.63;;
11481;SDS011;5797;51.662;6.748;2023-08-20T03:23:01;8.07;;;5.33;;
11481;SDS011;5797;51.662;6.748;2023-08-20T03:25:31;8.77;;;4.47;;
11481;SDS011;5797;51.662;6.748;2023-08-20T03:28:00;7.03;;;4.80;;
11481;SDS011;5797;51.662;6.748;2023-08-20T03:30:28;9.40;;;4.93;;
11481;SDS011;5797;51.662;6.748;2023-08-20T03:32:58;6.43;;;4.57;;
11481;SDS011;5797;51.662;6.748;2023-08-20T03:35:27;9.13;;;5.53;;
11481;SDS011;5797;51.662;6.748;2023-08-20T03:37:56;12.30;;;5.30;;
11481;SDS011;5797;51.662;6.748;2023-08-20T03:40:24;8.93;;;5.13;;
11481;SDS011;5797;51.662;6.748;2023-08-20T03:42:54;8.20;;;5.33;;
11481;SDS011;5797;51.662;6.748;2023-08-20T03:45:24;8.13;;;4.90;;
11481;SDS011;5797;51.662;6.748;2023-08-20T03:47:52;8.70;;;5.00;;
11481;SDS011;5797;51.662;6.748;2023-08-20T03:50:21;9.37;;;5.50;;
11481;SDS011;5797;51.662;6.748;2023-08-20T03:52:49;11.40;;;4.73;;
11481;SDS011;5797;51.662;6.748;2023-08-20T03:55:18;8.03;;;4.93;;
11481;SDS011;5797;51.662;6.748;2023-08-20T03:57:47;7.87;;;4.93;;
11481;SDS011;5797;51.662;6.748;2023-08-20T04:00:17;10.87;;;6.00;;
11481;SDS011;5797;51.662;6.748;2023-08-20T04:02:45;7.27;;;5.60;;
11481;SDS011;5797;51.662;6.748;2023-08-20T04:05:14;10.80;;;5.27;;
11481;SDS011;5797;51.662;6.748;2023-08-20T04:07:42;9.93;;;5.57;;
11481;SDS011;5797;51.662;6.748;2023-08-20T04:10:11;7.57;;;5.67;;
11481;SDS011;5797;51.662;6.748;2023-08-20T04:12:39;8.20;;;5.37;;
11481;SDS011;5797;51.662;6.748;2023-08-20T04:15:08;7.87;;;4.97;;
11481;SDS011;5797;51.662;6.748;2023-08-20T04:17:40;12.13;;;5.57;;
11481;SDS011;5797;51.662;6.748;2023-08-20T04:20:09;9.53;;;5.60;;
11481;SDS011;5797;51.662;6.748;2023-08-20T04:22:38;10.63;;;5.43;;
11481;SDS011;5797;51.662;6.748;2023-08-20T04:25:07;7.50;;;5.57;;
11481;SDS011;5797;51.662;6.748;2023-08-20T04:27:36;9.20;;;5.27;;
11481;SDS011;5797;51.662;6.748;2023-08-20T04:30:07;8.93;;;4.90;;
11481;SDS011;5797;51.662;6.748;2023-08-20T04:32:37;9.63;;;5.90;;
11481;SDS011;5797;51.662;6.748;2023-08-20T04:35:07;6.83;;;5.37;;
11481;SDS011;5797;51.662;6.748;2023-08-20T04:37:37;11.47;;;5.27;;
11481;SDS011;5797;51.662;6.748;2023-08-20T04:40:07;9.73;;;5.20;;
11481;SDS011;5797;51.662;6.748;2023-08-20T04:42:38;11.03;;;5.30;;
11481;SDS011;5797;51.662;6.748;2023-08-20T04:45:07;7.13;;;5.43;;
11481;SDS011;5797;51.662;6.748;2023-08-20T04:47:37;9.00;;;5.30;;
11481;SDS011;5797;51.662;6.748;2023-08-20T04:50:08;9.10;;;5.30;;
11481;SDS011;5797;51.662;6.748;2023-08-20T04:52:37;10.93;;;5.90;;
11481;SDS011;5797;51.662;6.748;2023-08-20T04:55:07;8.73;;;5.53;;
11481;SDS011;5797;51.662;6.748;2023-08-20T04:57:37;8.97;;;4.90;;
11481;SDS011;5797;51.662;6.748;2023-08-20T05:00:07;10.03;;;5.30;;
11481;SDS011;5797;51.662;6.748;2023-08-20T05:03:03;9.90;;;5.10;;
11481;SDS011;5797;51.662;6.748;2023-08-20T05:05:33;7.30;;;5.33;;
11481;SDS011;5797;51.662;6.748;2023-08-20T05:08:02;7.67;;;5.00;;
11481;SDS011;5797;51.662;6.748;2023-08-20T05:10:31;5.80;;;4.87;;
11481;SDS011;5797;51.662;6.748;2023-08-20T05:13:00;7.23;;;4.90;;
11481;SDS011;5797;51.662;6.748;2023-08-20T05:15:28;5.97;;;4.70;;
11481;SDS011;5797;51.662;6.748;2023-08-20T05:17:57;8.07;;;5.03;;
11481;SDS011;5797;51.662;6.748;2023-08-20T05:20:26;9.13;;;5.03;;
11481;SDS011;5797;51.662;6.748;2023-08-20T05:22:56;7.43;;;4.80;;
11481;SDS011;5797;51.662;6.748;2023-08-20T05:25:25;7.37;;;5.07;;
11481;SDS011;5797;51.662;6.748;2023-08-20T05:27:55;8.47;;;5.63;;
11481;SDS011;5797;51.662;6.748;2023-08-20T05:30:24;7.87;;;5.13;;
11481;SDS011;5797;51.662;6.748;2023-08-20T05:32:55;8.33;;;5.77;;
11481;SDS011;5797;51.662;6.748;2023-08-20T05:35:24;8.60;;;5.67;;
11481;SDS011;5797;51.662;6.748;2023-08-20T05:37:53;8.13;;;5.30;;
11481;SDS011;5797;51.662;6.748;2023-08-20T05:40:23;10.07;;;6.30;;
11481;SDS011;5797;51.662;6.748;2023-08-20T05:42:52;9.77;;;6.63;;
11481;SDS011;5797;51.662;6.748;2023-08-20T05:45:20;9.83;;;6.50;;
11481;SDS011;5797;51.662;6.748;2023-08-20T05:47:50;11.50;;;7.00;;
11481;SDS011;5797;51.662;6.748;2023-08-20T05:50:21;8.57;;;6.30;;
11481;SDS011;5797;51.662;6.748;2023-08-20T05:52:50;11.90;;;6.63;;
11481;SDS011;5797;51.662;6.748;2023-08-20T05:55:18;10.47;;;6.60;;
11481;SDS011;5797;51.662;6.748;2023-08-20T05:57:48;10.00;;;6.40;;
11481;SDS011;5797;51.662;6.748;2023-08-20T06:00:17;12.00;;;7.50;;
11481;SDS011;5797;51.662;6.748;2023-08-20T06:02:47;11.83;;;6.53;;
11481;SDS011;5797;51.662;6.748;2023-08-20T06:05:16;12.97;;;7.07;;
11481;SDS011;5797;51.662;6.748;2023-08-20T06:07:45;10.40;;;6.67;;
11481;SDS011;5797;51.662;6.748;2023-08-20T06:10:13;9.23;;;6.57;;
11481;SDS011;5797;51.662;6.748;2023-08-20T06:12:42;11.97;;;7.13;;
11481;SDS011;5797;51.662;6.748;2023-08-20T06:15:13;11.27;;;7.17;;
11481;SDS011;5797;51.662;6.748;2023-08-20T06:17:42;12.93;;;7.03;;
11481;SDS011;5797;51.662;6.748;2023-08-20T06:20:10;10.70;;;7.40;;
11481;SDS011;5797;51.662;6.748;2023-08-20T06:22:39;18.43;;;7.90;;
11481;SDS011;5797;51.662;6.748;2023-08-20T06:25:08;12.10;;;8.17;;
11481;SDS011;5797;51.662;6.748;2023-08-20T06:27:36;14.00;;;8.90;;
11481;SDS011;5797;51.662;6.748;2023-08-20T06:30:05;13.67;;;8.43;;
11481;SDS011;5797;51.662;6.748;2023-08-20T06:32:37;13.30;;;7.80;;
11481;SDS011;5797;51.662;6.748;2023-08-20T06:35:06;16.03;;;8.40;;
11481;SDS011;5797;51.662;6.748;2023-08-20T06:37:36;11.40;;;8.00;;
11481;SDS011;5797;51.662;6.748;2023-08-20T06:40:06;11.17;;;8.63;;
11481;SDS011;5797;51.662;6.748;2023-08-20T06:42:36;15.43;;;9.57;;
11481;SDS011;5797;51.662;6.748;2023-08-20T06:45:07;16.67;;;9.70;;
11481;SDS011;5797;51.662;6.748;2023-08-20T06:47:37;17.87;;;10.23;;
11481;SDS011;5797;51.662;6.748;2023-08-20T06:50:06;15.93;;;9.63;;
11481;SDS011;5797;51.662;6.748;2023-08-20T06:52:35;20.93;;;10.67;;
11481;SDS011;5797;51.662;6.748;2023-08-20T06:55:04;17.80;;;10.20;;
11481;SDS011;5797;51.662;6.748;2023-08-20T06:57:32;23.93;;;12.90;;
11481;SDS011;5797;51.662;6.748;2023-08-20T07:00:01;25.47;;;13.83;;
11481;SDS011;5797;51.662;6.748;2023-08-20T07:02:32;30.40;;;16.80;;
11481;SDS011;5797;51.662;6.748;2023-08-20T07:05:02;26.90;;;15.10;;
11481;SDS011;5797;51.662;6.748;2023-08-20T07:07:30;27.87;;;15.53;;
11481;SDS011;5797;51.662;6.748;2023-08-20T07:10:01;30.33;;;14.57;;
11481;SDS011;5797;51.662;6.748;2023-08-20T07:12:30;26.33;;;14.90;;
11481;SDS011;5797;51.662;6.748;2023-08-20T07:14:59;27.20;;;16.37;;
11481;SDS011;5797;51.662;6.748;2023-08-20T07:17:27;29.77;;;15.13;;
11481;SDS011;5797;51.662;6.748;2023-08-20T07:19:56;27.77;;;15.13;;
11481;SDS011;5797;51.662;6.748;2023-08-20T07:22:26;25.07;;;14.07;;
11481;SDS011;5797;51.662;6.748;2023-08-20T07:24:54;23.27;;;14.33;;
11481;SDS011;5797;51.662;6.748;2023-08-20T07:27:23;28.53;;;14.83;;
11481;SDS011;5797;51.662;6.748;2023-08-20T07:29:52;24.90;;;15.33;;
11481;SDS011;5797;51.662;6.748;2023-08-20T07:32:20;28.80;;;15.20;;
11481;SDS011;5797;51.662;6.748;2023-08-20T07:34:49;28.67;;;15.93;;
11481;SDS011;5797;51.662;6.748;2023-08-20T07:37:17;26.57;;;14.70;;
11481;SDS011;5797;51.662;6.748;2023-08-20T07:39:49;31.43;;;14.43;;
11481;SDS011;5797;51.662;6.748;2023-08-20T07:42:17;27.17;;;14.50;;
11481;SDS011;5797;51.662;6.748;2023-08-20T07:44:46;22.67;;;14.60;;
11481;SDS011;5797;51.662;6.748;2023-08-20T07:47:14;25.43;;;15.27;;
11481;SDS011;5797;51.662;6.748;2023-08-20T07:49:43;27.17;;;13.97;;
11481;SDS011;5797;51.662;6.748;2023-08-20T07:52:11;26.33;;;16.97;;
11481;SDS011;5797;51.662;6.748;2023-08-20T07:54:40;24.10;;;14.90;;
11481;SDS011;5797;51.662;6.748;2023-08-20T07:57:10;26.73;;;14.90;;
11481;SDS011;5797;51.662;6.748;2023-08-20T07:59:39;26.03;;;15.83;;
11481;SDS011;5797;51.662;6.748;2023-08-20T08:02:07;25.77;;;15.63;;
11481;SDS011;5797;51.662;6.748;2023-08-20T08:04:36;27.10;;;16.57;;
11481;SDS011;5797;51.662;6.748;2023-08-20T08:07:04;26.43;;;16.10;;
11481;SDS011;5797;51.662;6.748;2023-08-20T08:09:33;25.37;;;15.60;;
11481;SDS011;5797;51.662;6.748;2023-08-20T08:12:01;26.90;;;15.67;;
11481;SDS011;5797;51.662;6.748;2023-08-20T08:14:32;21.97;;;13.77;;
11481;SDS011;5797;51.662;6.748;2023-08-20T08:17:00;26.33;;;14.37;;
11481;SDS011;5797;51.662;6.748;2023-08-20T08:19:29;22.20;;;14.38;;
11481;SDS011;5797;51.662;6.748;2023-08-20T08:21:57;23.10;;;16.00;;
11481;SDS011;5797;51.662;6.748;2023-08-20T08:24:26;23.30;;;15.95;;
11481;SDS011;5797;51.662;6.748;2023-08-20T08:26:54;29.38;;;16.13;;
11481;SDS011;5797;51.662;6.748;2023-08-20T08:29:23;24.88;;;14.43;;
11481;SDS011;5797;51.662;6.748;2023-08-20T08:31:53;25.45;;;17.58;;
11481;SDS011;5797;51.662;6.748;2023-08-20T08:34:21;23.35;;;15.30;;
11481;SDS011;5797;51.662;6.748;2023-08-20T08:36:50;26.10;;;16.25;;
11481;SDS011;5797;51.662;6.748;2023-08-20T08:39:18;33.88;;;17.33;;
11481;SDS011;5797;51.662;6.748;2023-08-20T08:41:47;28.25;;;15.73;;
11481;SDS011;5797;51.662;6.748;2023-08-20T08:44:18;25.48;;;16.35;;
11481;SDS011;5797;51.662;6.748;2023-08-20T08:46:47;26.95;;;16.20;;
11481;SDS011;5797;51.662;6.748;2023-08-20T08:49:19;27.45;;;16.65;;
11481;SDS011;5797;51.662;6.748;2023-08-20T08:51:47;25.65;;;15.77;;
11481;SDS011;5797;51.662;6.748;2023-08-20T08:54:16;26.73;;;15.90;;
11481;SDS011;5797;51.662;6.748;2023-08-20T08:56:45;21.05;;;14.40;;
11481;SDS011;5797;51.662;6.748;2023-08-20T08:59:13;20.65;;;13.95;;
11481;SDS011;5797;51.662;6.748;2023-08-20T09:01:43;17.13;;;11.23;;
11481;SDS011;5797;51.662;6.748;2023-08-20T09:04:11;17.02;;;10.45;;
11481;SDS011;5797;51.662;6.748;2023-08-20T09:06:47;15.43;;;9.75;;
11481;SDS011;5797;51.662;6.748;2023-08-20T09:09:17;17.05;;;11.07;;
11481;SDS011;5797;51.662;6.748;2023-08-20T09:11:46;16.55;;;10.25;;
11481;SDS011;5797;51.662;6.748;2023-08-20T09:14:21;14.65;;;10.20;;
11481;SDS011;5797;51.662;6.748;2023-08-20T09:16:54;20.27;;;11.63;;
11481;SDS011;5797;51.662;6.748;2023-08-20T09:19:24;16.15;;;11.30;;
11481;SDS011;5797;51.662;6.748;2023-08-20T09:21:54;17.45;;;11.27;;
11481;SDS011;5797;51.662;6.748;2023-08-20T09:24:25;16.88;;;11.43;;
11481;SDS011;5797;51.662;6.748;2023-08-20T09:26:56;14.48;;;10.73;;
11481;SDS011;5797;51.662;6.748;2023-08-20T09:29:27;14.27;;;11.50;;
11481;SDS011;5797;51.662;6.748;2023-08-20T09:31:59;14.60;;;11.43;;
11481;SDS011;5797;51.662;6.748;2023-08-20T09:34:36;16.63;;;11.70;;
11481;SDS011;5797;51.662;6.748;2023-08-20T09:37:11;15.45;;;10.70;;
11481;SDS011;5797;51.662;6.748;2023-08-20T09:39:41;14.27;;;9.57;;
11481;SDS011;5797;51.662;6.748;2023-08-20T09:42:10;12.88;;;9.20;;
11481;SDS011;5797;51.662;6.748;2023-08-20T09:44:39;18.00;;;12.48;;
11481;SDS011;5797;51.662;6.748;2023-08-20T09:47:09;19.35;;;14.93;;
11481;SDS011;5797;51.662;6.748;2023-08-20T09:49:39;21.20;;;16.40;;
11481;SDS011;5797;51.662;6.748;2023-08-20T09:52:08;21.27;;;17.02;;
11481;SDS011;5797;51.662;6.748;2023-08-20T09:57:32;22.52;;;16.15;;
11481;SDS011;5797;51.662;6.748;2023-08-20T10:00:02;22.35;;;16.15;;
11481;SDS011;5797;51.662;6.748;2023-08-20T10:02:39;18.55;;;14.93;;
11481;SDS011;5797;51.662;6.748;2023-08-20T10:05:08;23.10;;;16.45;;
11481;SDS011;5797;51.662;6.748;2023-08-20T10:07:38;22.63;;;16.63;;
11481;SDS011;5797;51.662;6.748;2023-08-20T10:10:08;21.30;;;16.42;;
11481;SDS011;5797;51.662;6.748;2023-08-20T10:12:39;17.50;;;15.32;;
11481;SDS011;5797;51.662;6.748;2023-08-20T10:15:09;21.55;;;15.73;;
11481;SDS011;5797;51.662;6.748;2023-08-20T10:17:39;23.73;;;18.90;;
11481;SDS011;5797;51.662;6.748;2023-08-20T10:20:09;24.83;;;16.75;;
11481;SDS011;5797;51.662;6.748;2023-08-20T10:22:41;19.23;;;15.68;;
11481;SDS011;5797;51.662;6.748;2023-08-20T10:25:12;23.08;;;17.45;;
11481;SDS011;5797;51.662;6.748;2023-08-20T10:27:51;20.42;;;16.60;;
11481;SDS011;5797;51.662;6.748;2023-08-20T10:30:22;17.92;;;15.43;;
11481;SDS011;5797;51.662;6.748;2023-08-20T10:32:53;15.60;;;11.82;;
11481;SDS011;5797;51.662;6.748;2023-08-20T10:35:23;14.35;;;11.90;;
11481;SDS011;5797;51.662;6.748;2023-08-20T10:38:02;11.55;;;10.40;;
11481;SDS011;5797;51.662;6.748;2023-08-20T10:43:26;12.70;;;9.52;;
11481;SDS011;5797;51.662;6.748;2023-08-20T10:46:02;11.45;;;9.65;;
11481;SDS011;5797;51.662;6.748;2023-08-20T10:48:42;14.32;;;8.60;;
11481;SDS011;5797;51.662;6.748;2023-08-20T10:51:12;13.60;;;7.85;;
11481;SDS011;5797;51.662;6.748;2023-08-20T10:53:42;6.97;;;6.07;;
11481;SDS011;5797;51.662;6.748;2023-08-20T10:56:14;15.75;;;6.90;;
11481;SDS011;5797;51.662;6.748;2023-08-20T10:58:44;8.45;;;6.30;;
11481;SDS011;5797;51.662;6.748;2023-08-20T11:01:20;11.05;;;7.63;;
11481;SDS011;5797;51.662;6.748;2023-08-20T11:03:51;9.23;;;7.07;;
11481;SDS011;5797;51.662;6.748;2023-08-20T11:06:19;12.63;;;7.72;;
11481;SDS011;5797;51.662;6.748;2023-08-20T11:08:48;12.65;;;6.60;;
11481;SDS011;5797;51.662;6.748;2023-08-20T11:11:18;8.95;;;6.63;;
11481;SDS011;5797;51.662;6.748;2023-08-20T11:13:48;8.25;;;5.82;;
11481;SDS011;5797;51.662;6.748;2023-08-20T11:16:17;9.32;;;5.47;;
11481;SDS011;5797;51.662;6.748;2023-08-20T11:18:47;8.75;;;5.38;;
11481;SDS011;5797;51.662;6.748;2023-08-20T11:21:15;5.25;;;4.75;;
11481;SDS011;5797;51.662;6.748;2023-08-20T11:23:46;6.72;;;4.72;;
11481;SDS011;5797;51.662;6.748;2023-08-20T11:26:18;5.97;;;4.03;;
11481;SDS011;5797;51.662;6.748;2023-08-20T11:28:47;5.15;;;3.70;;
11481;SDS011;5797;51.662;6.748;2023-08-20T11:31:15;5.93;;;3.38;;
11481;SDS011;5797;51.662;6.748;2023-08-20T11:33:44;4.78;;;2.80;;
11481;SDS011;5797;51.662;6.748;2023-08-20T11:36:14;3.95;;;2.63;;
11481;SDS011;5797;51.662;6.748;2023-08-20T11:38:49;5.65;;;3.25;;
11481;SDS011;5797;51.662;6.748;2023-08-20T11:41:19;4.28;;;2.97;;
11481;SDS011;5797;51.662;6.748;2023-08-20T11:43:48;3.10;;;2.50;;
11481;SDS011;5797;51.662;6.748;2023-08-20T11:46:18;3.90;;;2.45;;
11481;SDS011;5797;51.662;6.748;2023-08-20T11:49:01;4.25;;;2.40;;
11481;SDS011;5797;51.662;6.748;2023-08-20T11:51:35;4.38;;;2.20;;
11481;SDS011;5797;51.662;6.748;2023-08-20T11:54:05;5.35;;;2.50;;
11481;SDS011;5797;51.662;6.748;2023-08-20T11:56:36;5.30;;;2.28;;
11481;SDS011;5797;51.662;6.748;2023-08-20T11:59:11;4.38;;;2.35;;
11481;SDS011;5797;51.662;6.748;2023-08-20T12:01:40;3.92;;;2.58;;
11481;SDS011;5797;51.662;6.748;2023-08-20T12:04:11;4.38;;;2.17;;
11481;SDS011;5797;51.662;6.748;2023-08-20T12:06:40;3.72;;;2.30;;
11481;SDS011;5797;51.662;6.748;2023-08-20T12:09:18;3.58;;;2.28;;
11481;SDS011;5797;51.662;6.748;2023-08-20T12:11:51;6.70;;;2.30;;
11481;SDS011;5797;51.662;6.748;2023-08-20T12:14:23;3.33;;;2.00;;
11481;SDS011;5797;51.662;6.748;2023-08-20T12:16:53;3.65;;;1.75;;
11481;SDS011;5797;51.662;6.748;2023-08-20T12:19:21;3.97;;;2.30;;
11481;SDS011;5797;51.662;6.748;2023-08-20T12:21:50;3.50;;;1.92;;
11481;SDS011;5797;51.662;6.748;2023-08-20T12:24:19;4.95;;;2.30;;
11481;SDS011;5797;51.662;6.748;2023-08-20T12:26:49;4.15;;;2.47;;
11481;SDS011;5797;51.662;6.748;2023-08-20T12:29:18;4.15;;;2.10;;
11481;SDS011;5797;51.662;6.748;2023-08-20T12:31:47;4.88;;;2.10;;
11481;SDS011;5797;51.662;6.748;2023-08-20T12:34:15;5.35;;;1.92;;
11481;SDS011;5797;51.662;6.748;2023-08-20T12:36:44;4.13;;;2.13;;
11481;SDS011;5797;51.662;6.748;2023-08-20T12:39:13;5.65;;;2.40;;
11481;SDS011;5797;51.662;6.748;2023-08-20T12:41:42;3.58;;;2.10;;
11481;SDS011;5797;51.662;6.748;2023-08-20T12:44:12;2.17;;;1.73;;
11481;SDS011;5797;51.662;6.748;2023-08-20T12:46:41;3.55;;;1.95;;
11481;SDS011;5797;51.662;6.748;2023-08-20T12:49:09;1.92;;;1.65;;
11481;SDS011;5797;51.662;6.748;2023-08-20T12:51:38;3.00;;;1.83;;
11481;SDS011;5797;51.662;6.748;2023-08-20T12:54:06;5.38;;;1.52;;
11481;SDS011;5797;51.662;6.748;2023-08-20T12:56:35;5.65;;;2.40;;
11481;SDS011;5797;51.662;6.748;2023-08-20T12:59:04;5.97;;;2.08;;
11481;SDS011;5797;51.662;6.748;2023-08-20T13:01:33;3.22;;;1.95;;
11481;SDS011;5797;51.662;6.748;2023-08-20T13:04:02;3.65;;;1.90;;
11481;SDS011;5797;51.662;6.748;2023-08-20T13:06:35;3.95;;;1.92;;
11481;SDS011;5797;51.662;6.748;2023-08-20T13:09:05;5.88;;;2.20;;
11481;SDS011;5797;51.662;6.748;2023-08-20T13:11:36;3.88;;;1.95;;
11481;SDS011;5797;51.662;6.748;2023-08-20T13:14:05;6.18;;;2.10;;
11481;SDS011;5797;51.662;6.748;2023-08-20T13:16:36;2.85;;;1.80;;
11481;SDS011;5797;51.662;6.748;2023-08-20T13:19:06;6.20;;;2.03;;
11481;SDS011;5797;51.662;6.748;2023-08-20T13:21:35;3.60;;;1.92;;
11481;SDS011;5797;51.662;6.748;2023-08-20T13:24:03;2.58;;;1.80;;
11481;SDS011;5797;51.662;6.748;2023-08-20T13:26:33;5.22;;;1.83;;
11481;SDS011;5797;51.662;6.748;2023-08-20T13:29:01;3.33;;;2.10;;
11481;SDS011;5797;51.662;6.748;2023-08-20T13:31:30;2.90;;;1.95;;
11481;SDS011;5797;51.662;6.748;2023-08-20T13:34:00;5.32;;;1.98;;
11481;SDS011;5797;51.662;6.748;2023-08-20T13:36:29;4.10;;;1.92;;
11481;SDS011;5797;51.662;6.748;2023-08-20T13:38:58;3.22;;;1.98;;
11481;SDS011;5797;51.662;6.748;2023-08-20T13:41:27;5.43;;;2.00;;
11481;SDS011;5797;51.662;6.748;2023-08-20T13:43:55;3.70;;;2.15;;
11481;SDS011;5797;51.662;6.748;2023-08-20T13:46:24;8.63;;;2.13;;
11481;SDS011;5797;51.662;6.748;2023-08-20T13:48:52;3.00;;;2.00;;
11481;SDS011;5797;51.662;6.748;2023-08-20T13:51:22;5.10;;;2.00;;
11481;SDS011;5797;51.662;6.748;2023-08-20T13:53:51;2.67;;;1.90;;
11481;SDS011;5797;51.662;6.748;2023-08-20T13:56:19;5.20;;;1.90;;
11481;SDS011;5797;51.662;6.748;2023-08-20T13:58:48;3.08;;;1.70;;
11481;SDS011;5797;51.662;6.748;2023-08-20T14:01:16;2.80;;;1.80;;
11481;SDS011;5797;51.662;6.748;2023-08-20T14:03:45;3.08;;;1.63;;
11481;SDS011;5797;51.662;6.748;2023-08-20T14:06:14;3.65;;;1.65;;
11481;SDS011;5797;51.662;6.748;2023-08-20T14:08:44;2.88;;;1.90;;
11481;SDS011;5797;51.662;6.748;2023-08-20T14:11:13;5.32;;;1.77;;
11481;SDS011;5797;51.662;6.748;2023-08-20T14:13:41;4.20;;;1.67;;
11481;SDS011;5797;51.662;6.748;2023-08-20T14:16:10;5.63;;;1.80;;
11481;SDS011;5797;51.662;6.748;2023-08-20T14:18:39;4.00;;;1.70;;
11481;SDS011;5797;51.662;6.748;2023-08-20T14:21:07;19.30;;;6.78;;
11481;SDS011;5797;51.662;6.748;2023-08-20T14:23:36;4.38;;;1.90;;
11481;SDS011;5797;51.662;6.748;2023-08-20T14:26:06;8.23;;;3.95;;
11481;SDS011;5797;51.662;6.748;2023-08-20T14:28:35;4.13;;;1.75;;
11481;SDS011;5797;51.662;6.748;2023-08-20T14:31:03;3.28;;;2.05;;
11481;SDS011;5797;51.662;6.748;2023-08-20T14:33:32;5.03;;;2.08;;
11481;SDS011;5797;51.662;6.748;2023-08-20T14:36:01;7.05;;;1.60;;
11481;SDS011;5797;51.662;6.748;2023-08-20T14:38:30;4.68;;;1.90;;
11481;SDS011;5797;51.662;6.748;2023-08-20T14:40:59;1.73;;;1.60;;
11481;SDS011;5797;51.662;6.748;2023-08-20T14:43:31;3.03;;;1.63;;
11481;SDS011;5797;51.662;6.748;2023-08-20T14:46:00;5.68;;;2.20;;
11481;SDS011;5797;51.662;6.748;2023-08-20T14:48:28;7.60;;;2.47;;
11481;SDS011;5797;51.662;6.748;2023-08-20T14:50:57;2.45;;;1.63;;
11481;SDS011;5797;51.662;6.748;2023-08-20T14:53:26;3.17;;;1.73;;
11481;SDS011;5797;51.662;6.748;2023-08-20T14:55:54;6.00;;;1.60;;
11481;SDS011;5797;51.662;6.748;2023-08-20T14:58:22;4.53;;;1.80;;
11481;SDS011;5797;51.662;6.748;2023-08-20T15:00:52;4.07;;;1.80;;
11481;SDS011;5797;51.662;6.748;2023-08-20T15:03:21;3.75;;;1.95;;
11481;SDS011;5797;51.662;6.748;2023-08-20T15:05:49;3.35;;;1.60;;
11481;SDS011;5797;51.662;6.748;2023-08-20T15:08:18;2.88;;;2.00;;
11481;SDS011;5797;51.662;6.748;2023-08-20T15:10:48;3.20;;;1.65;;
11481;SDS011;5797;51.662;6.748;2023-08-20T15:13:24;2.50;;;1.50;;